sensor_id;sensor_type;location;lat;lon;timestamp;pressure;altitude;pressure_sealevel;temperature;humidity
47815;BME280;33579;50.058;18.130;2022-09-12T00:00:21;99154.63;;;15.55;100.00
47815;BME280;33579;50.058;18.130;2022-09-12T00:01:24;99155.13;;;15.59;100.00
47815;BME280;33579;50.058;18.130;2022-09-12T00:02:26;99148.69;;;15.62;100.00
47815;BME280;33579;50.058;18.130;2022-09-12T00:03:28;99151.81;;;15.65;100.00
47815;BME280;33579;50.058;18.130;2022-09-12T00:04:29;99150.00;;;15.66;100.00
47815;BME280;33579;50.058;18.130;2022-09-12T00:05:31;99153.28;;;15.68;100.00
47815;BME280;33579;50.058;18.130;2022-09-12T00:06:34;99153.28;;;15.68;100.00
47815;BME280;33579;50.058;18.130;2022-09-12T00:07:36;99153.97;;;15.62;100.00
47815;BME280;33579;50.058;18.130;2022-09-12T00:08:38;99156.28;;;15.65;100.00
47815;BME280;33579;50.058;18.130;2022-09-12T00:09:39;99155.28;;;15.66;100.00
47815;BME280;33579;50.058;18.130;2022-09-12T00:10:42;99159.78;;;15.65;100.00
47815;BME280;33579;50.058;18.130;2022-09-12T00:11:45;99153.28;;;15.68;100.00
47815;BME280;33579;50.058;18.130;2022-09-12T00:12:47;99149.66;;;15.69;100.00
47815;BME280;33579;50.058;18.130;2022-09-12T00:13:48;99149.66;;;15.69;100.00
47815;BME280;33579;50.058;18.130;2022-09-12T00:14:50;99149.66;;;15.69;100.00
47815;BME280;33579;50.058;18.130;2022-09-12T00:15:51;99151.13;;;15.71;100.00
47815;BME280;33579;50.058;18.130;2022-09-12T00:16:56;99151.63;;;15.67;100.00
47815;BME280;33579;50.058;18.130;2022-09-12T00:17:58;99148.34;;;15.65;100.00
47815;BME280;33579;50.058;18.130;2022-09-12T00:19:00;99150.50;;;15.61;100.00
47815;BME280;33579;50.058;18.130;2022-09-12T00:20:06;99152.81;;;15.64;100.00
47815;BME280;33579;50.058;18.130;2022-09-12T00:21:08;99151.16;;;15.55;100.00
47815;BME280;33579;50.058;18.130;2022-09-12T00:22:09;99149.34;;;15.55;100.00
47815;BME280;33579;50.058;18.130;2022-09-12T00:23:12;99152.66;;;15.57;100.00
47815;BME280;33579;50.058;18.130;2022-09-12T00:24:14;99150.66;;;15.59;100.00
47815;BME280;33579;50.058;18.130;2022-09-12T00:25:15;99150.00;;;15.57;100.00
47815;BME280;33579;50.058;18.130;2022-09-12T00:26:18;99157.13;;;15.57;100.00
47815;BME280;33579;50.058;18.130;2022-09-12T00:27:20;99148.88;;;15.52;100.00
47815;BME280;33579;50.058;18.130;2022-09-12T00:28:21;99158.81;;;15.50;100.00
47815;BME280;33579;50.058;18.130;2022-09-12T00:29:23;99147.06;;;15.44;100.00
47815;BME280;33579;50.058;18.130;2022-09-12T00:30:24;99152.66;;;15.41;100.00
47815;BME280;33579;50.058;18.130;2022-09-12T00:31:26;99159.44;;;15.35;100.00
47815;BME280;33579;50.058;18.130;2022-09-12T00:32:28;99155.63;;;15.29;100.00
47815;BME280;33579;50.058;18.130;2022-09-12T00:33:29;99151.69;;;15.34;100.00
47815;BME280;33579;50.058;18.130;2022-09-12T00:34:31;99149.69;;;15.36;100.00
47815;BME280;33579;50.058;18.130;2022-09-12T00:35:32;99149.69;;;15.36;100.00
47815;BME280;33579;50.058;18.130;2022-09-12T00:36:34;99148.19;;;15.33;100.00
47815;BME280;33579;50.058;18.130;2022-09-12T00:37:35;99149.34;;;15.30;100.00
47815;BME280;33579;50.058;18.130;2022-09-12T00:38:37;99148.69;;;15.28;100.00
47815;BME280;33579;50.058;18.130;2022-09-12T00:39:39;99145.03;;;15.29;100.00
47815;BME280;33579;50.058;18.130;2022-09-12T00:40:41;99142.22;;;15.31;100.00
47815;BME280;33579;50.058;18.130;2022-09-12T00:41:43;99150.69;;;15.35;100.00
47815;BME280;33579;50.058;18.130;2022-09-12T00:42:44;99149.69;;;15.36;100.00
47815;BME280;33579;50.058;18.130;2022-09-12T00:43:52;99153.84;;;15.38;100.00
47815;BME280;33579;50.058;18.130;2022-09-12T00:44:54;99153.66;;;15.40;100.00
47815;BME280;33579;50.058;18.130;2022-09-12T00:45:56;99156.31;;;15.40;100.00
47815;BME280;33579;50.058;18.130;2022-09-12T00:47:09;99156.66;;;15.37;100.00
47815;BME280;33579;50.058;18.130;2022-09-12T00:48:20;99148.53;;;15.38;100.00
47815;BME280;33579;50.058;18.130;2022-09-12T00:49:27;99154.50;;;15.40;100.00
47815;BME280;33579;50.058;18.130;2022-09-12T00:50:30;99154.31;;;15.42;100.00
47815;BME280;33579;50.058;18.130;2022-09-12T00:51:35;99156.97;;;15.42;100.00
47815;BME280;33579;50.058;18.130;2022-09-12T00:52:46;99152.00;;;15.39;100.00
47815;BME280;33579;50.058;18.130;2022-09-12T00:53:51;99156.50;;;15.38;100.00
47815;BME280;33579;50.058;18.130;2022-09-12T00:56:07;99151.34;;;15.37;100.00
47815;BME280;33579;50.058;18.130;2022-09-12T00:57:10;99151.19;;;15.38;100.00
47815;BME280;33579;50.058;18.130;2022-09-12T00:58:29;99144.22;;;15.37;100.00
47815;BME280;33579;50.058;18.130;2022-09-12T01:00:10;99143.38;;;15.37;100.00
47815;BME280;33579;50.058;18.130;2022-09-12T01:01:03;99140.09;;;15.35;100.00
47815;BME280;33579;50.058;18.130;2022-09-12T01:02:05;99143.72;;;15.34;100.00
47815;BME280;33579;50.058;18.130;2022-09-12T01:03:10;99139.44;;;15.32;100.00
47815;BME280;33579;50.058;18.130;2022-09-12T01:04:13;99135.94;;;15.32;100.00
47815;BME280;33579;50.058;18.130;2022-09-12T01:05:14;99140.44;;;15.31;100.00
47815;BME280;33579;50.058;18.130;2022-09-12T01:06:20;99142.22;;;15.31;100.00
47815;BME280;33579;50.058;18.130;2022-09-12T01:07:23;99144.88;;;15.31;100.00
47815;BME280;33579;50.058;18.130;2022-09-12T01:08:26;99142.88;;;15.33;100.00
47815;BME280;33579;50.058;18.130;2022-09-12T01:09:28;99140.09;;;15.35;100.00
47815;BME280;33579;50.058;18.130;2022-09-12T01:10:31;99142.72;;;15.35;100.00
47815;BME280;33579;50.058;18.130;2022-09-12T01:11:36;99146.69;;;15.30;100.00
47815;BME280;33579;50.058;18.130;2022-09-12T01:12:41;99146.53;;;15.32;100.00
47815;BME280;33579;50.058;18.130;2022-09-12T01:13:44;99144.88;;;15.31;100.00
47815;BME280;33579;50.058;18.130;2022-09-12T01:14:46;99145.06;;;15.21;100.00
47815;BME280;33579;50.058;18.130;2022-09-12T01:15:47;99148.53;;;15.13;100.00
47815;BME280;33579;50.058;18.130;2022-09-12T01:16:49;99146.53;;;15.15;100.00
47815;BME280;33579;50.058;18.130;2022-09-12T01:18:07;99151.84;;;15.15;100.00
47815;BME280;33579;50.058;18.130;2022-09-12T01:22:10;99147.19;;;15.09;100.00
47815;BME280;33579;50.058;18.130;2022-09-12T01:23:51;99153.00;;;15.13;100.00
47815;BME280;33579;50.058;18.130;2022-09-12T01:25:27;99150.50;;;15.11;100.00
47815;BME280;33579;50.058;18.130;2022-09-12T01:28:12;99147.69;;;15.13;100.00
47815;BME280;33579;50.058;18.130;2022-09-12T01:30:50;99141.72;;;15.11;100.00
47815;BME280;33579;50.058;18.130;2022-09-12T01:32:16;99142.72;;;15.10;100.00
47815;BME280;33579;50.058;18.130;2022-09-12T01:34:53;99147.03;;;14.94;100.00
47815;BME280;33579;50.058;18.130;2022-09-12T01:36:08;99146.03;;;14.95;100.00
47815;BME280;33579;50.058;18.130;2022-09-12T01:38:44;99147.69;;;14.96;100.00
47815;BME280;33579;50.058;18.130;2022-09-12T01:42:34;99145.03;;;14.96;100.00
47815;BME280;33579;50.058;18.130;2022-09-12T01:44:35;99144.53;;;14.93;100.00
47815;BME280;33579;50.058;18.130;2022-09-12T01:45:19;99147.19;;;14.93;100.00
47815;BME280;33579;50.058;18.130;2022-09-12T01:46:31;99138.38;;;14.92;100.00
47815;BME280;33579;50.058;18.130;2022-09-12T01:48:46;99130.94;;;14.96;100.00
47815;BME280;33579;50.058;18.130;2022-09-12T01:51:06;99137.09;;;14.96;100.00
47815;BME280;33579;50.058;18.130;2022-09-12T01:52:17;99135.09;;;14.98;100.00
47815;BME280;33579;50.058;18.130;2022-09-12T01:53:27;99134.09;;;14.99;100.00
47815;BME280;33579;50.058;18.130;2022-09-12T01:54:36;99133.44;;;14.97;100.00
47815;BME280;33579;50.058;18.130;2022-09-12T01:55:51;99134.44;;;14.96;100.00
47815;BME280;33579;50.058;18.130;2022-09-12T01:56:58;99131.44;;;14.99;100.00
47815;BME280;33579;50.058;18.130;2022-09-12T01:59:22;99128.78;;;14.91;100.00
47815;BME280;33579;50.058;18.130;2022-09-12T02:00:26;99128.28;;;14.87;100.00
47815;BME280;33579;50.058;18.130;2022-09-12T02:01:30;99139.88;;;14.86;100.00
47815;BME280;33579;50.058;18.130;2022-09-12T02:02:37;99143.34;;;14.87;100.00
47815;BME280;33579;50.058;18.130;2022-09-12T02:03:52;99137.88;;;14.80;100.00
47815;BME280;33579;50.058;18.130;2022-09-12T02:05:16;99137.84;;;14.72;100.00
47815;BME280;33579;50.058;18.130;2022-09-12T02:06:24;99135.06;;;14.73;100.00
47815;BME280;33579;50.058;18.130;2022-09-12T02:07:37;99137.00;;;14.71;100.00
47815;BME280;33579;50.058;18.130;2022-09-12T02:08:48;99141.66;;;14.69;100.00
47815;BME280;33579;50.058;18.130;2022-09-12T02:11:14;99140.66;;;14.70;100.00
47815;BME280;33579;50.058;18.130;2022-09-12T02:12:20;99137.16;;;14.70;100.00
47815;BME280;33579;50.058;18.130;2022-09-12T02:13:45;99143.78;;;14.66;100.00
47815;BME280;33579;50.058;18.130;2022-09-12T02:14:49;99143.59;;;14.67;100.00
47815;BME280;33579;50.058;18.130;2022-09-12T02:15:56;99137.50;;;14.67;100.00
47815;BME280;33579;50.058;18.130;2022-09-12T02:17:09;99140.81;;;14.69;100.00
47815;BME280;33579;50.058;18.130;2022-09-12T02:18:13;99137.72;;;14.73;100.00
47815;BME280;33579;50.058;18.130;2022-09-12T02:19:19;99144.31;;;14.78;100.00
47815;BME280;33579;50.058;18.130;2022-09-12T02:20:25;99144.50;;;14.76;100.00
47815;BME280;33579;50.058;18.130;2022-09-12T02:21:54;99147.47;;;14.73;100.00
47815;BME280;33579;50.058;18.130;2022-09-12T02:22:56;99146.97;;;14.78;100.00
47815;BME280;33579;50.058;18.130;2022-09-12T02:24:00;99144.00;;;14.81;100.00
47815;BME280;33579;50.058;18.130;2022-09-12T02:25:04;99145.25;;;14.68;100.00
47815;BME280;33579;50.058;18.130;2022-09-12T02:26:11;99148.91;;;14.67;100.00
47815;BME280;33579;50.058;18.130;2022-09-12T02:27:15;99144.28;;;14.69;100.00
47815;BME280;33579;50.058;18.130;2022-09-12T02:28:34;99143.66;;;14.75;100.00
47815;BME280;33579;50.058;18.130;2022-09-12T02:29:38;99142.53;;;14.78;100.00
47815;BME280;33579;50.058;18.130;2022-09-12T02:30:45;99144.97;;;14.80;100.00
47815;BME280;33579;50.058;18.130;2022-09-12T02:31:58;99143.03;;;14.82;100.00
47815;BME280;33579;50.058;18.130;2022-09-12T02:33:17;99140.19;;;14.83;100.00
47815;BME280;33579;50.058;18.130;2022-09-12T02:34:38;99142.50;;;14.86;100.00
47815;BME280;33579;50.058;18.130;2022-09-12T02:35:52;99149.97;;;14.83;100.00
47815;BME280;33579;50.058;18.130;2022-09-12T02:38:39;99146.00;;;14.87;100.00
47815;BME280;33579;50.058;18.130;2022-09-12T02:39:41;99145.34;;;14.85;100.00
47815;BME280;33579;50.058;18.130;2022-09-12T02:40:45;99148.00;;;14.85;100.00
47815;BME280;33579;50.058;18.130;2022-09-12T02:41:50;99147.16;;;14.84;100.00
47815;BME280;33579;50.058;18.130;2022-09-12T02:42:52;99145.50;;;14.83;100.00
47815;BME280;33579;50.058;18.130;2022-09-12T02:43:54;99148.66;;;14.87;100.00
47815;BME280;33579;50.058;18.130;2022-09-12T02:44:56;99152.13;;;14.79;100.00
47815;BME280;33579;50.058;18.130;2022-09-12T02:45:57;99145.94;;;14.70;100.00
47815;BME280;33579;50.058;18.130;2022-09-12T02:47:07;99147.31;;;14.74;100.00
47815;BME280;33579;50.058;18.130;2022-09-12T02:48:15;99149.28;;;14.81;100.00
47815;BME280;33579;50.058;18.130;2022-09-12T02:49:18;99148.47;;;14.80;100.00
47815;BME280;33579;50.058;18.130;2022-09-12T02:50:20;99149.28;;;14.81;100.00
47815;BME280;33579;50.058;18.130;2022-09-12T02:51:22;99135.91;;;14.82;100.00
47815;BME280;33579;50.058;18.130;2022-09-12T02:52:24;99144.69;;;14.83;100.00
47815;BME280;33579;50.058;18.130;2022-09-12T02:53:28;99142.69;;;14.85;100.00
47815;BME280;33579;50.058;18.130;2022-09-12T02:54:30;99143.84;;;14.82;100.00
47815;BME280;33579;50.058;18.130;2022-09-12T02:55:32;99150.97;;;14.82;100.00
47815;BME280;33579;50.058;18.130;2022-09-12T02:56:35;99143.00;;;14.73;100.00
47815;BME280;33579;50.058;18.130;2022-09-12T02:57:40;99146.47;;;14.74;100.00
47815;BME280;33579;50.058;18.130;2022-09-12T02:58:42;99149.28;;;14.81;100.00
47815;BME280;33579;50.058;18.130;2022-09-12T02:59:44;99150.78;;;14.83;100.00
47815;BME280;33579;50.058;18.130;2022-09-12T03:01:06;99157.75;;;14.84;100.00
47815;BME280;33579;50.058;18.130;2022-09-12T03:02:26;99157.09;;;14.82;100.00
47815;BME280;33579;50.058;18.130;2022-09-12T03:03:46;99161.72;;;14.80;100.00
47815;BME280;33579;50.058;18.130;2022-09-12T03:06:25;99163.13;;;14.66;100.00
47815;BME280;33579;50.058;18.130;2022-09-12T03:07:57;99153.91;;;14.70;100.00
47815;BME280;33579;50.058;18.130;2022-09-12T03:09:19;99152.59;;;14.74;100.00
47815;BME280;33579;50.058;18.130;2022-09-12T03:12:01;99156.50;;;14.62;100.00
47815;BME280;33579;50.058;18.130;2022-09-12T03:16:18;99162.84;;;14.78;100.00
47815;BME280;33579;50.058;18.130;2022-09-12T03:17:28;99166.16;;;14.80;100.00
47815;BME280;33579;50.058;18.130;2022-09-12T03:18:57;99159.41;;;14.85;100.00
47815;BME280;33579;50.058;18.130;2022-09-12T03:20:09;99164.22;;;14.82;100.00
47815;BME280;33579;50.058;18.130;2022-09-12T03:21:20;99166.16;;;14.80;100.00
47815;BME280;33579;50.058;18.130;2022-09-12T03:23:15;99156.41;;;14.80;100.00
47815;BME280;33579;50.058;18.130;2022-09-12T03:24:17;99162.06;;;14.77;100.00
47815;BME280;33579;50.058;18.130;2022-09-12T03:25:29;99152.72;;;14.65;100.00
47815;BME280;33579;50.058;18.130;2022-09-12T03:26:46;99156.03;;;14.67;100.00
47815;BME280;33579;50.058;18.130;2022-09-12T03:27:58;99155.69;;;14.70;100.00
47815;BME280;33579;50.058;18.130;2022-09-12T03:29:02;99155.41;;;14.73;100.00
47815;BME280;33579;50.058;18.130;2022-09-12T03:30:07;99146.63;;;14.72;100.00
47815;BME280;33579;50.058;18.130;2022-09-12T03:31:14;99158.56;;;14.77;100.00
47815;BME280;33579;50.058;18.130;2022-09-12T03:32:16;99150.28;;;14.80;100.00
47815;BME280;33579;50.058;18.130;2022-09-12T03:33:22;99155.75;;;14.86;100.00
47815;BME280;33579;50.058;18.130;2022-09-12T03:34:25;99156.59;;;14.87;100.00
47815;BME280;33579;50.058;18.130;2022-09-12T03:35:27;99160.25;;;14.86;100.00
47815;BME280;33579;50.058;18.130;2022-09-12T03:36:29;99153.94;;;14.87;100.00
47815;BME280;33579;50.058;18.130;2022-09-12T03:37:30;99158.09;;;14.89;100.00
47815;BME280;33579;50.058;18.130;2022-09-12T03:38:32;99156.25;;;14.90;100.00
47815;BME280;33579;50.058;18.130;2022-09-12T03:39:33;99153.47;;;14.92;100.00
47815;BME280;33579;50.058;18.130;2022-09-12T03:40:36;99161.06;;;14.95;100.00
47815;BME280;33579;50.058;18.130;2022-09-12T03:41:38;99163.25;;;14.99;100.00
47815;BME280;33579;50.058;18.130;2022-09-12T03:42:40;99151.81;;;14.99;100.00
47815;BME280;33579;50.058;18.130;2022-09-12T03:43:42;99161.41;;;15.00;100.00
47815;BME280;33579;50.058;18.130;2022-09-12T03:44:43;99157.94;;;14.99;100.00
47815;BME280;33579;50.058;18.130;2022-09-12T03:45:49;99157.78;;;15.01;100.00
47815;BME280;33579;50.058;18.130;2022-09-12T03:46:50;99158.44;;;15.03;100.00
47815;BME280;33579;50.058;18.130;2022-09-12T03:47:52;99158.13;;;15.06;100.00
47815;BME280;33579;50.058;18.130;2022-09-12T03:48:53;99161.59;;;15.07;100.00
47815;BME280;33579;50.058;18.130;2022-09-12T03:49:55;99159.63;;;15.09;100.00
47815;BME280;33579;50.058;18.130;2022-09-12T03:51:05;99155.63;;;15.13;100.00
47815;BME280;33579;50.058;18.130;2022-09-12T03:52:07;99157.13;;;15.15;100.00
47815;BME280;33579;50.058;18.130;2022-09-12T03:53:08;99157.13;;;15.15;100.00
47815;BME280;33579;50.058;18.130;2022-09-12T03:54:14;99157.66;;;15.19;100.00
47815;BME280;33579;50.058;18.130;2022-09-12T03:55:16;99158.31;;;15.21;100.00
47815;BME280;33579;50.058;18.130;2022-09-12T03:56:17;99161.63;;;15.23;100.00
47815;BME280;33579;50.058;18.130;2022-09-12T03:57:19;99158.97;;;15.23;100.00
47815;BME280;33579;50.058;18.130;2022-09-12T03:58:20;99162.44;;;15.24;100.00
47815;BME280;33579;50.058;18.130;2022-09-12T03:59:22;99159.13;;;15.22;100.00
47815;BME280;33579;50.058;18.130;2022-09-12T04:00:23;99158.63;;;15.26;100.00
47815;BME280;33579;50.058;18.130;2022-09-12T04:01:24;99157.97;;;15.24;100.00
47815;BME280;33579;50.058;18.130;2022-09-12T04:02:27;99157.81;;;15.26;100.00
47815;BME280;33579;50.058;18.130;2022-09-12T04:03:29;99161.94;;;15.28;100.00
47815;BME280;33579;50.058;18.130;2022-09-12T04:04:30;99165.59;;;15.27;100.00
47815;BME280;33579;50.058;18.130;2022-09-12T04:05:32;99170.06;;;15.27;100.00
47815;BME280;33579;50.058;18.130;2022-09-12T04:06:34;99161.94;;;15.28;100.00
47815;BME280;33579;50.058;18.130;2022-09-12T04:07:35;99171.38;;;15.31;100.00
47815;BME280;33579;50.058;18.130;2022-09-12T04:08:37;99169.41;;;15.33;100.00
47815;BME280;33579;50.058;18.130;2022-09-12T04:09:39;99167.91;;;15.30;100.00
47815;BME280;33579;50.058;18.130;2022-09-12T04:10:41;99169.59;;;15.31;100.00
47815;BME280;33579;50.058;18.130;2022-09-12T04:11:42;99174.03;;;15.31;100.00
47815;BME280;33579;50.058;18.130;2022-09-12T04:12:43;99173.88;;;15.32;100.00
47815;BME280;33579;50.058;18.130;2022-09-12T04:13:46;99170.53;;;15.30;100.00
47815;BME280;33579;50.058;18.130;2022-09-12T04:14:48;99175.69;;;15.32;100.00
47815;BME280;33579;50.058;18.130;2022-09-12T04:15:57;99175.69;;;15.32;100.00
47815;BME280;33579;50.058;18.130;2022-09-12T04:16:59;99174.03;;;15.31;100.00
47815;BME280;33579;50.058;18.130;2022-09-12T04:18:01;99178.50;;;15.30;100.00
47815;BME280;33579;50.058;18.130;2022-09-12T04:19:06;99172.03;;;15.33;100.00
47815;BME280;33579;50.058;18.130;2022-09-12T04:20:08;99175.69;;;15.32;100.00
47815;BME280;33579;50.058;18.130;2022-09-12T04:21:15;99178.03;;;15.27;100.00
47815;BME280;33579;50.058;18.130;2022-09-12T04:22:17;99173.72;;;15.26;100.00
47815;BME280;33579;50.058;18.130;2022-09-12T04:23:19;99175.69;;;15.24;100.00
47815;BME280;33579;50.058;18.130;2022-09-12T04:24:20;99178.50;;;15.22;100.00
47815;BME280;33579;50.058;18.130;2022-09-12T04:25:22;99177.69;;;15.13;100.00
47815;BME280;33579;50.058;18.130;2022-09-12T04:26:23;99179.78;;;15.01;100.00
47815;BME280;33579;50.058;18.130;2022-09-12T04:27:25;99177.31;;;15.00;100.00
47815;BME280;33579;50.058;18.130;2022-09-12T04:28:27;99174.50;;;15.01;100.00
47815;BME280;33579;50.058;18.130;2022-09-12T04:29:29;99188.91;;;14.91;100.00
47815;BME280;33579;50.058;18.130;2022-09-12T04:30:32;99180.28;;;14.88;100.00
47815;BME280;33579;50.058;18.130;2022-09-12T04:31:34;99179.59;;;14.78;100.00
47815;BME280;33579;50.058;18.130;2022-09-12T04:32:35;99172.31;;;14.80;100.00
47815;BME280;33579;50.058;18.130;2022-09-12T04:33:37;99176.13;;;14.86;100.00
47815;BME280;33579;50.058;18.130;2022-09-12T04:34:38;99180.09;;;14.82;100.00
47815;BME280;33579;50.058;18.130;2022-09-12T04:35:40;99181.25;;;14.79;100.00
47815;BME280;33579;50.058;18.130;2022-09-12T04:36:41;99181.25;;;14.79;100.00
47815;BME280;33579;50.058;18.130;2022-09-12T04:37:43;99176.75;;;14.80;100.00
47815;BME280;33579;50.058;18.130;2022-09-12T04:38:46;99188.34;;;14.79;100.00
47815;BME280;33579;50.058;18.130;2022-09-12T04:39:48;99179.19;;;14.65;100.00
47815;BME280;33579;50.058;18.130;2022-09-12T04:40:49;99177.31;;;14.57;100.00
47815;BME280;33579;50.058;18.130;2022-09-12T04:41:51;99177.31;;;14.57;100.00
47815;BME280;33579;50.058;18.130;2022-09-12T04:42:52;99180.63;;;14.51;100.00
47815;BME280;33579;50.058;18.130;2022-09-12T04:43:55;99180.56;;;14.42;100.00
47815;BME280;33579;50.058;18.130;2022-09-12T04:44:57;99183.75;;;14.46;100.00
47815;BME280;33579;50.058;18.130;2022-09-12T04:46:04;99188.19;;;14.37;100.00
47815;BME280;33579;50.058;18.130;2022-09-12T04:47:05;99181.22;;;14.36;100.00
47815;BME280;33579;50.058;18.130;2022-09-12T04:48:07;99186.34;;;14.38;100.00
47815;BME280;33579;50.058;18.130;2022-09-12T04:49:10;99184.41;;;14.40;100.00
47815;BME280;33579;50.058;18.130;2022-09-12T04:50:12;99185.38;;;14.39;100.00
47815;BME280;33579;50.058;18.130;2022-09-12T04:51:18;99184.72;;;14.45;100.00
47815;BME280;33579;50.058;18.130;2022-09-12T04:52:20;99186.41;;;14.46;100.00
47815;BME280;33579;50.058;18.130;2022-09-12T04:53:22;99181.44;;;14.43;100.00
47815;BME280;33579;50.058;18.130;2022-09-12T04:54:23;99186.75;;;14.51;100.00
47815;BME280;33579;50.058;18.130;2022-09-12T04:55:25;99182.78;;;14.55;100.00
47815;BME280;33579;50.058;18.130;2022-09-12T04:56:27;99185.44;;;14.55;100.00
47815;BME280;33579;50.058;18.130;2022-09-12T04:57:29;99187.75;;;14.58;100.00
47815;BME280;33579;50.058;18.130;2022-09-12T04:58:31;99191.88;;;14.53;100.00
47815;BME280;33579;50.058;18.130;2022-09-12T04:59:32;99192.72;;;14.53;100.00
47815;BME280;33579;50.058;18.130;2022-09-12T05:00:34;99188.56;;;14.51;100.00
47815;BME280;33579;50.058;18.130;2022-09-12T05:01:35;99193.00;;;14.50;100.00
47815;BME280;33579;50.058;18.130;2022-09-12T05:02:37;99199.50;;;14.56;100.00
47815;BME280;33579;50.058;18.130;2022-09-12T05:03:40;99197.69;;;14.56;100.00
47815;BME280;33579;50.058;18.130;2022-09-12T05:04:42;99198.34;;;14.58;100.00
47815;BME280;33579;50.058;18.130;2022-09-12T05:05:43;99190.41;;;14.58;100.00
47815;BME280;33579;50.058;18.130;2022-09-12T05:06:45;99190.41;;;14.58;100.00
47815;BME280;33579;50.058;18.130;2022-09-12T05:07:46;99188.94;;;14.64;100.00
47815;BME280;33579;50.058;18.130;2022-09-12T05:08:48;99202.84;;;14.66;100.00
47815;BME280;33579;50.058;18.130;2022-09-12T05:09:50;99201.03;;;14.67;100.00
47815;BME280;33579;50.058;18.130;2022-09-12T05:10:51;99203.69;;;14.67;100.00
47815;BME280;33579;50.058;18.130;2022-09-12T05:11:53;99198.88;;;14.62;100.00
47815;BME280;33579;50.058;18.130;2022-09-12T05:13:09;99202.84;;;14.58;100.00
47815;BME280;33579;50.058;18.130;2022-09-12T05:14:11;99204.78;;;14.56;100.00
47815;BME280;33579;50.058;18.130;2022-09-12T05:15:12;99205.16;;;14.61;100.00
47815;BME280;33579;50.058;18.130;2022-09-12T05:16:16;99202.19;;;14.64;100.00
47815;BME280;33579;50.058;18.130;2022-09-12T05:17:18;99205.16;;;14.61;100.00
47815;BME280;33579;50.058;18.130;2022-09-12T05:18:19;99211.25;;;14.61;100.00
47815;BME280;33579;50.058;18.130;2022-09-12T05:19:21;99204.81;;;14.64;100.00
47815;BME280;33579;50.058;18.130;2022-09-12T05:20:22;99200.56;;;14.71;100.00
47815;BME280;33579;50.058;18.130;2022-09-12T05:21:25;99211.84;;;14.73;100.00
47815;BME280;33579;50.058;18.130;2022-09-12T05:22:27;99209.88;;;14.75;100.00
47815;BME280;33579;50.058;18.130;2022-09-12T05:23:29;99213.81;;;14.71;100.00
47815;BME280;33579;50.058;18.130;2022-09-12T05:24:31;99210.19;;;14.72;100.00
47815;BME280;33579;50.058;18.130;2022-09-12T05:25:32;99212.66;;;14.74;100.00
47815;BME280;33579;50.058;18.130;2022-09-12T05:26:33;99222.13;;;14.77;100.00
47815;BME280;33579;50.058;18.130;2022-09-12T05:27:35;99216.81;;;14.77;100.00
47815;BME280;33579;50.058;18.130;2022-09-12T05:28:37;99217.66;;;14.77;100.00
47815;BME280;33579;50.058;18.130;2022-09-12T05:29:38;99219.13;;;14.80;100.00
47815;BME280;33579;50.058;18.130;2022-09-12T05:30:40;99219.31;;;14.86;100.00
47815;BME280;33579;50.058;18.130;2022-09-12T05:31:41;99221.31;;;14.84;100.00
47815;BME280;33579;50.058;18.130;2022-09-12T05:32:43;99225.63;;;14.85;100.00
47815;BME280;33579;50.058;18.130;2022-09-12T05:33:46;99226.13;;;14.89;100.00
47815;BME280;33579;50.058;18.130;2022-09-12T05:34:48;99230.25;;;14.83;100.00
47815;BME280;33579;50.058;18.130;2022-09-12T05:35:50;99236.69;;;14.72;100.00
47815;BME280;33579;50.058;18.130;2022-09-12T05:36:51;99232.63;;;14.68;100.00
47815;BME280;33579;50.058;18.130;2022-09-12T05:37:53;99238.25;;;14.65;100.00
47815;BME280;33579;50.058;18.130;2022-09-12T05:38:54;99240.84;;;14.57;100.00
47815;BME280;33579;50.058;18.130;2022-09-12T05:39:56;99241.84;;;14.56;100.00
47815;BME280;33579;50.058;18.130;2022-09-12T05:41:07;99247.47;;;14.53;100.00
47815;BME280;33579;50.058;18.130;2022-09-12T05:42:14;99242.84;;;14.55;100.00
47815;BME280;33579;50.058;18.130;2022-09-12T05:43:16;99242.84;;;14.55;100.00
47815;BME280;33579;50.058;18.130;2022-09-12T05:44:18;99243.03;;;14.61;100.00
47815;BME280;33579;50.058;18.130;2022-09-12T05:45:19;99246.06;;;14.67;100.00
47815;BME280;33579;50.058;18.130;2022-09-12T05:46:26;99242.63;;;14.74;100.00
47815;BME280;33579;50.058;18.130;2022-09-12T05:47:28;99245.81;;;14.78;100.00
47815;BME280;33579;50.058;18.130;2022-09-12T05:48:29;99242.97;;;14.80;100.00
47815;BME280;33579;50.058;18.130;2022-09-12T05:49:31;99235.41;;;14.85;100.00
47815;BME280;33579;50.058;18.130;2022-09-12T05:50:32;99239.03;;;14.84;100.00
47815;BME280;33579;50.058;18.130;2022-09-12T05:51:36;99239.84;;;14.84;100.00
47815;BME280;33579;50.058;18.130;2022-09-12T05:52:38;99246.31;;;14.82;100.00
47815;BME280;33579;50.058;18.130;2022-09-12T05:53:40;99243.16;;;14.78;100.00
47815;BME280;33579;50.058;18.130;2022-09-12T05:54:41;99243.91;;;14.70;100.00
47815;BME280;33579;50.058;18.130;2022-09-12T05:55:43;99240.00;;;14.74;100.00
47815;BME280;33579;50.058;18.130;2022-09-12T05:56:45;99245.13;;;14.76;100.00
47815;BME280;33579;50.058;18.130;2022-09-12T05:57:47;99241.66;;;14.75;100.00
47815;BME280;33579;50.058;18.130;2022-09-12T05:59:00;99244.97;;;14.78;100.00
47815;BME280;33579;50.058;18.130;2022-09-12T06:00:03;99241.16;;;14.80;100.00
47815;BME280;33579;50.058;18.130;2022-09-12T06:01:14;99238.78;;;14.69;100.00
47815;BME280;33579;50.058;18.130;2022-09-12T06:02:16;99237.78;;;14.70;100.00